createdAt,value
2022-08-02T00:02:40.737Z,7.05
2022-08-02T00:05:27.097Z,9.93
2022-08-02T00:08:13.116Z,8.60
2022-08-02T00:10:59.261Z,8.52
2022-08-02T00:13:45.519Z,6.68
2022-08-02T00:16:37.441Z,5.90
2022-08-02T00:22:10.356Z,9.63
2022-08-02T00:24:56.674Z,8.07
2022-08-02T00:27:42.657Z,6.38
2022-08-02T00:30:28.412Z,6.38
2022-08-02T00:33:14.826Z,7.18
2022-08-02T00:36:00.689Z,6.18
2022-08-02T00:38:48.074Z,7.93
2022-08-02T00:41:33.989Z,6.60
2022-08-02T00:44:21.250Z,7.28
2022-08-02T00:47:07.429Z,4.95
2022-08-02T00:49:53.358Z,6.45
2022-08-02T00:52:39.321Z,8.77
2022-08-02T00:55:31.283Z,8.68
2022-08-02T00:58:17.350Z,6.78
2022-08-02T01:01:03.754Z,6.65
2022-08-02T01:03:49.997Z,6.05
2022-08-02T01:06:37.366Z,7.85
2022-08-02T01:09:23.260Z,7.57
2022-08-02T01:12:09.802Z,5.13
2022-08-02T01:15:00.451Z,7.43
2022-08-02T01:17:51.209Z,6.18
2022-08-02T01:20:49.791Z,6.22
2022-08-02T01:23:57.928Z,5.75
2022-08-02T01:27:21.273Z,7.30
2022-08-02T01:30:08.610Z,5.32
2022-08-02T01:32:58.949Z,5.25
2022-08-02T01:35:50.885Z,6.47
2022-08-02T01:38:43.833Z,6.28
2022-08-02T01:41:30.813Z,7.63
2022-08-02T01:44:17.859Z,6.15
2022-08-02T01:47:19.854Z,4.68
2022-08-02T01:52:54.042Z,8.40
2022-08-02T01:55:57.055Z,6.40
2022-08-02T01:58:45.766Z,6.20
2022-08-02T02:01:33.395Z,6.40
2022-08-02T02:04:22.195Z,10.07
2022-08-02T02:07:08.689Z,6.30
2022-08-02T02:09:54.923Z,5.97
2022-08-02T02:12:43.151Z,8.60
2022-08-02T02:15:31.309Z,6.00
2022-08-02T02:18:23.773Z,6.20
2022-08-02T02:21:10.441Z,7.40
2022-08-02T02:23:56.637Z,8.02
2022-08-02T02:26:52.100Z,4.80
2022-08-02T02:29:43.301Z,8.27
2022-08-02T02:32:29.746Z,6.72
2022-08-02T02:35:16.750Z,5.82
2022-08-02T02:38:04.481Z,5.65
2022-08-02T02:40:50.628Z,6.35
2022-08-02T02:43:38.318Z,5.40
2022-08-02T02:46:26.267Z,8.40
2022-08-02T02:49:13.381Z,7.53
2022-08-02T02:51:59.614Z,6.70
2022-08-02T02:54:49.132Z,5.47
2022-08-02T02:57:37.218Z,7.00
2022-08-02T03:00:43.507Z,6.57
2022-08-02T03:03:30.132Z,7.13
2022-08-02T03:06:16.393Z,5.90
2022-08-02T03:09:02.202Z,5.13
2022-08-02T03:11:48.659Z,11.40
2022-08-02T03:14:35.047Z,8.20
2022-08-02T03:17:21.099Z,6.53
2022-08-02T03:20:10.043Z,8.18
2022-08-02T03:22:55.948Z,7.75
2022-08-02T03:25:41.829Z,8.93
2022-08-02T03:28:28.110Z,9.65
2022-08-02T03:31:14.096Z,12.40
2022-08-02T03:34:01.577Z,5.68
2022-08-02T03:36:49.347Z,6.20
2022-08-02T03:39:35.302Z,10.38
2022-08-02T03:42:21.616Z,8.70
2022-08-02T03:45:10.133Z,5.70
2022-08-02T03:47:58.749Z,6.85
2022-08-02T03:50:47.592Z,6.40
2022-08-02T03:53:34.183Z,4.50
2022-08-02T03:56:20.070Z,6.43
2022-08-02T03:59:11.414Z,15.27
2022-08-02T04:01:57.521Z,13.00
2022-08-02T04:04:43.521Z,11.20
2022-08-02T04:08:33.556Z,11.02
2022-08-02T04:10:55.931Z,8.80
2022-08-02T04:13:42.057Z,7.07
2022-08-02T04:16:33.923Z,5.32
2022-08-02T04:19:28.193Z,7.22
2022-08-02T04:22:24.573Z,6.80
2022-08-02T04:25:17.135Z,8.43
2022-08-02T04:28:16.658Z,10.85
2022-08-02T04:31:05.281Z,13.82
2022-08-02T04:33:51.179Z,5.35
2022-08-02T04:36:38.139Z,5.65
2022-08-02T04:39:24.735Z,4.30
2022-08-02T04:42:10.967Z,6.45
2022-08-02T04:44:58.076Z,6.05
2022-08-02T04:48:02.175Z,4.53
2022-08-02T04:50:50.482Z,5.85
2022-08-02T04:53:36.422Z,5.95
2022-08-02T04:56:22.246Z,6.22
2022-08-02T04:59:08.442Z,5.78
2022-08-02T05:01:54.613Z,6.20
2022-08-02T05:04:40.775Z,5.50
2022-08-02T05:07:26.802Z,6.18
2022-08-02T05:10:15.252Z,5.88
2022-08-02T05:13:01.184Z,5.05
2022-08-02T05:15:50.640Z,6.53
2022-08-02T05:18:36.802Z,6.35
2022-08-02T05:21:22.872Z,5.57
2022-08-02T05:24:09.764Z,3.58
2022-08-02T05:26:55.574Z,7.88
2022-08-02T05:29:41.655Z,4.72
2022-08-02T05:32:50.762Z,12.90
2022-08-02T05:35:36.914Z,6.20
2022-08-02T05:38:26.025Z,8.50
2022-08-02T05:41:12.476Z,4.75
2022-08-02T05:43:58.305Z,5.88
2022-08-02T05:46:44.182Z,5.25
2022-08-02T05:49:30.243Z,7.90
2022-08-02T05:52:18.418Z,5.65
2022-08-02T05:55:13.434Z,7.97
2022-08-02T05:58:26.911Z,4.50
2022-08-02T06:01:14.467Z,3.60
2022-08-02T06:04:01.142Z,6.97
2022-08-02T06:06:50.178Z,5.72
2022-08-02T06:09:36.272Z,4.72
2022-08-02T06:12:25.880Z,4.50
2022-08-02T06:15:15.075Z,6.60
2022-08-02T06:18:02.255Z,5.32
2022-08-02T06:20:50.432Z,5.30
2022-08-02T06:23:42.207Z,5.63
2022-08-02T06:26:44.972Z,6.43
2022-08-02T06:29:37.038Z,4.13
2022-08-02T06:32:26.879Z,7.13
2022-08-02T06:35:13.475Z,5.53
2022-08-02T06:38:03.182Z,3.35
2022-08-02T06:40:56.564Z,5.88
2022-08-02T06:44:27.390Z,6.72
2022-08-02T13:15:49.265Z,8.18
2022-08-02T13:18:19.469Z,2.75
2022-08-02T13:21:06.890Z,4.65
2022-08-02T13:23:54.693Z,1.52
2022-08-02T13:26:41.630Z,2.28
2022-08-02T13:29:27.740Z,2.03
2022-08-02T13:32:14.523Z,1.65
2022-08-02T13:35:01.288Z,7.88
2022-08-02T13:37:48.268Z,1.85
2022-08-02T13:40:49.232Z,2.85
2022-08-02T13:43:53.404Z,2.67
2022-08-02T13:46:45.499Z,1.65
2022-08-02T13:49:50.566Z,4.72
2022-08-02T13:52:37.960Z,3.10
2022-08-02T13:55:24.415Z,2.97
2022-08-02T13:58:10.664Z,1.30
2022-08-02T14:00:56.767Z,2.63
2022-08-02T14:04:07.497Z,3.00
2022-08-02T14:06:49.436Z,5.55
2022-08-02T14:09:38.327Z,2.35
2022-08-02T14:12:26.513Z,2.38
2022-08-02T14:15:12.449Z,1.98
2022-08-02T14:17:58.425Z,1.60
2022-08-02T14:20:45.652Z,2.70
2022-08-02T14:23:50.121Z,1.48
2022-08-02T14:26:36.748Z,1.50
2022-08-02T14:29:23.074Z,4.18
2022-08-02T14:32:08.979Z,1.42
2022-08-02T14:34:56.348Z,1.75
2022-08-02T14:37:42.963Z,1.88
2022-08-02T14:40:31.644Z,2.72
2022-08-02T14:43:37.471Z,4.70
2022-08-02T14:46:24.397Z,2.00
2022-08-02T14:49:11.354Z,5.38
2022-08-02T14:52:01.693Z,1.40
2022-08-02T14:54:48.531Z,1.90
2022-08-02T14:57:35.310Z,2.60
2022-08-02T15:00:22.264Z,2.05
2022-08-02T15:03:10.059Z,2.03
2022-08-02T15:05:56.871Z,1.05
2022-08-02T15:08:43.289Z,2.63
2022-08-02T15:11:30.190Z,1.65
2022-08-02T15:14:35.692Z,2.60
2022-08-02T15:17:22.064Z,1.77
2022-08-02T15:20:24.435Z,1.98
2022-08-02T15:23:13.803Z,2.30
2022-08-02T15:25:59.885Z,4.20
2022-08-02T15:28:46.066Z,5.13
2022-08-02T15:31:33.510Z,2.45
2022-08-02T15:34:19.735Z,2.78
2022-08-02T15:37:05.665Z,3.67
2022-08-02T15:39:51.622Z,6.32
2022-08-02T15:42:37.568Z,2.08
2022-08-02T15:45:25.511Z,3.75
2022-08-02T15:48:12.402Z,1.58
2022-08-02T15:50:58.666Z,1.20
2022-08-02T15:53:44.699Z,3.00
2022-08-02T15:56:35.505Z,1.77
2022-08-02T15:59:21.446Z,4.57
2022-08-02T16:02:08.045Z,1.95
2022-08-02T16:04:54.140Z,1.30
2022-08-02T16:07:41.266Z,1.67
2022-08-02T16:10:27.683Z,2.15
2022-08-02T16:13:32.396Z,1.90
2022-08-02T16:16:18.554Z,3.08
2022-08-02T16:19:38.764Z,1.45
2022-08-02T16:22:12.493Z,3.20
2022-08-02T16:24:58.857Z,2.05
2022-08-02T16:28:06.058Z,4.25
2022-08-02T16:31:09.901Z,1.73
2022-08-02T16:33:57.410Z,1.55
2022-08-02T16:36:44.573Z,4.10
2022-08-02T16:39:30.642Z,3.40
2022-08-02T16:42:16.783Z,2.80
2022-08-02T16:45:11.221Z,3.10
2022-08-02T16:48:03.820Z,2.95
2022-08-02T16:50:51.689Z,2.55
2022-08-02T16:53:38.756Z,2.10
2022-08-02T16:56:43.669Z,2.85
2022-08-02T16:59:42.028Z,3.42
2022-08-02T17:02:29.588Z,2.67
2022-08-02T17:05:15.581Z,3.50
2022-08-02T17:08:15.613Z,4.28
2022-08-02T17:11:03.739Z,7.05
2022-08-02T17:13:50.240Z,3.28
2022-08-02T17:16:36.297Z,4.57
2022-08-02T17:19:22.405Z,6.07
2022-08-02T17:22:10.269Z,2.40
2022-08-02T17:24:59.339Z,3.15
2022-08-02T17:27:46.187Z,2.75
2022-08-02T17:30:32.118Z,2.50
2022-08-02T17:33:18.544Z,2.75
2022-08-02T17:36:05.057Z,2.38
2022-08-02T17:38:51.937Z,3.80
2022-08-02T17:41:49.275Z,2.00
2022-08-02T17:44:38.258Z,4.00
2022-08-02T17:47:30.695Z,2.92
2022-08-02T17:50:17.459Z,2.90
2022-08-02T17:53:06.428Z,4.35
2022-08-02T17:55:52.529Z,2.28
2022-08-02T17:58:38.312Z,3.95
2022-08-02T18:04:44.311Z,3.05
2022-08-02T18:07:49.080Z,2.05
2022-08-02T18:10:39.385Z,1.65
2022-08-02T18:13:25.356Z,7.53
2022-08-02T18:16:21.360Z,1.83
2022-08-02T18:19:16.608Z,2.70
2022-08-02T18:22:03.734Z,3.30
2022-08-02T18:24:49.401Z,4.53
2022-08-02T18:27:35.833Z,4.10
2022-08-02T18:30:28.204Z,2.20
2022-08-02T18:33:56.861Z,3.60
2022-08-02T18:36:25.113Z,3.63
2022-08-02T18:39:11.625Z,2.65
2022-08-02T18:41:58.038Z,2.60
2022-08-02T18:44:45.059Z,3.85
2022-08-02T18:47:33.052Z,4.32
2022-08-02T18:50:20.039Z,3.75
2022-08-02T18:53:06.874Z,3.45
2022-08-02T18:55:59.128Z,5.25
2022-08-02T18:58:49.270Z,4.47
2022-08-02T19:01:45.028Z,4.47
2022-08-02T19:04:34.769Z,3.03
2022-08-02T19:10:27.314Z,7.22
2022-08-02T19:13:17.342Z,8.50
2022-08-02T19:16:03.754Z,10.52
2022-08-02T19:18:51.243Z,10.05
2022-08-02T19:22:17.847Z,9.98
2022-08-02T19:24:43.311Z,12.73
2022-08-02T19:27:32.625Z,14.88
2022-08-02T19:30:21.326Z,21.23
2022-08-02T19:33:11.879Z,11.93
2022-08-02T19:36:11.769Z,25.60
2022-08-02T19:38:59.392Z,28.58
2022-08-02T19:41:46.990Z,28.33
2022-08-02T19:44:33.086Z,24.90
2022-08-02T19:47:19.660Z,28.33
2022-08-02T19:50:06.787Z,30.65
2022-08-02T19:52:55.679Z,18.65
2022-08-02T19:55:59.563Z,13.82
2022-08-02T19:58:48.034Z,7.10
2022-08-02T20:01:38.802Z,11.43
2022-08-02T20:04:27.441Z,7.50
2022-08-02T20:07:13.583Z,8.07
2022-08-02T20:10:12.104Z,7.45
2022-08-02T20:12:57.957Z,5.00
2022-08-02T20:15:56.030Z,3.75
2022-08-02T20:18:43.093Z,7.47
2022-08-02T20:21:36.060Z,11.57
2022-08-02T20:24:26.561Z,21.10
2022-08-02T20:27:16.905Z,17.70
2022-08-02T20:30:08.171Z,9.63
2022-08-02T20:33:02.549Z,7.30
2022-08-02T20:36:04.770Z,6.28
2022-08-02T20:38:51.445Z,4.90
2022-08-02T20:41:45.766Z,5.55
2022-08-02T20:44:34.518Z,5.75
2022-08-02T20:47:38.849Z,10.55
2022-08-02T20:50:44.658Z,13.23
2022-08-02T20:53:31.317Z,16.42
2022-08-02T20:56:17.890Z,20.25
2022-08-02T20:59:15.624Z,11.13
2022-08-02T21:02:02.285Z,6.50
2022-08-02T21:04:48.603Z,8.73
2022-08-02T21:07:37.186Z,11.88
2022-08-02T21:10:24.192Z,5.47
2022-08-02T21:13:18.579Z,7.82
2022-08-02T21:16:08.908Z,6.70
2022-08-02T21:18:59.977Z,6.00
2022-08-02T21:21:46.619Z,8.27
2022-08-02T21:24:33.034Z,10.10
2022-08-02T21:27:53.198Z,6.15
2022-08-02T21:30:26.922Z,4.88
2022-08-02T21:33:22.421Z,4.75
2022-08-02T21:36:09.619Z,6.10
2022-08-02T21:38:57.981Z,4.75
2022-08-02T21:41:46.632Z,5.57
2022-08-02T21:44:32.977Z,4.80
2022-08-02T21:47:27.666Z,5.00
2022-08-02T21:50:16.297Z,7.03
2022-08-02T21:53:02.212Z,6.85
2022-08-02T21:56:00.167Z,8.20
2022-08-02T21:58:47.161Z,13.63
2022-08-02T22:01:35.131Z,6.90
2022-08-02T22:04:21.999Z,6.90
2022-08-02T22:07:08.220Z,8.13
2022-08-02T22:09:55.368Z,5.28
2022-08-02T22:12:41.564Z,5.25
2022-08-02T22:15:36.030Z,6.97
2022-08-02T22:18:29.442Z,6.13
2022-08-02T22:21:16.925Z,4.35
2022-08-02T22:24:05.438Z,7.20
2022-08-02T22:26:59.029Z,4.07
2022-08-02T22:29:44.812Z,4.93
2022-08-02T22:32:51.037Z,5.60
2022-08-02T22:35:37.473Z,4.40
2022-08-02T22:38:26.014Z,3.78
2022-08-02T22:41:15.749Z,5.22
2022-08-02T22:44:02.164Z,3.97
2022-08-02T22:46:50.298Z,4.03
2022-08-02T22:49:58.979Z,4.75
2022-08-02T22:52:46.839Z,6.03
2022-08-02T22:55:41.277Z,4.25
2022-08-02T22:58:27.843Z,6.93
2022-08-02T22:58:41.486Z,3.95
2022-08-02T22:58:58.415Z,4.10
2022-08-02T23:01:14.485Z,4.28
2022-08-02T23:04:00.493Z,4.38
2022-08-02T23:06:46.506Z,5.15
2022-08-02T23:09:32.412Z,4.78
2022-08-02T23:12:21.465Z,6.22
2022-08-02T23:15:08.468Z,4.97
2022-08-02T23:18:13.069Z,5.43
2022-08-02T23:20:59.909Z,7.05
2022-08-02T23:23:45.864Z,9.90
2022-08-02T23:26:31.696Z,4.28
2022-08-02T23:29:19.562Z,6.13
2022-08-02T23:32:05.515Z,6.07
2022-08-02T23:34:52.902Z,3.17
2022-08-02T23:38:00.110Z,6.70
2022-08-02T23:40:45.209Z,3.33
2022-08-02T23:43:31.163Z,5.32
2022-08-02T23:46:17.146Z,3.67
2022-08-02T23:49:03.392Z,3.45
2022-08-02T23:51:50.661Z,5.68
2022-08-02T23:54:36.970Z,3.72
2022-08-02T23:57:23.279Z,3.92
